createdAt,value
2017-12-17T00:00:03.507Z,4.20
2017-12-17T00:02:31.101Z,4.10
2017-12-17T00:04:59.376Z,4.10
2017-12-17T00:07:26.876Z,4.10
2017-12-17T00:09:54.448Z,4.10
2017-12-17T00:12:21.920Z,4.10
2017-12-17T00:14:49.474Z,4.20
2017-12-17T00:17:16.983Z,4.20
2017-12-17T00:19:44.478Z,4.20
2017-12-17T00:22:12.733Z,4.10
2017-12-17T00:24:40.264Z,4.10
2017-12-17T00:27:07.771Z,4.10
2017-12-17T00:29:36.053Z,4.10
2017-12-17T00:32:03.617Z,4.10
2017-12-17T00:34:31.909Z,4.10
2017-12-17T00:36:59.416Z,4.00
2017-12-17T00:39:27.567Z,4.10
2017-12-17T00:41:55.248Z,4.10
2017-12-17T00:44:24.881Z,4.10
2017-12-17T00:46:52.843Z,4.10
2017-12-17T00:49:21.369Z,4.10
2017-12-17T00:51:50.411Z,4.10
2017-12-17T00:54:17.957Z,4.10
2017-12-17T00:56:45.527Z,4.10
2017-12-17T00:59:13.050Z,4.20
2017-12-17T01:01:41.591Z,4.20
2017-12-17T01:04:09.181Z,4.10
2017-12-17T01:06:36.931Z,4.20
2017-12-17T01:09:04.438Z,4.20
2017-12-17T01:11:32.157Z,4.10
2017-12-17T01:13:59.662Z,4.20
2017-12-17T01:16:28.282Z,4.10
2017-12-17T01:18:56.628Z,4.10
2017-12-17T01:21:24.186Z,4.10
2017-12-17T01:23:51.835Z,4.10
2017-12-17T01:26:19.314Z,4.10
2017-12-17T01:28:46.997Z,4.00
2017-12-17T01:31:14.624Z,4.00
2017-12-17T01:33:43.298Z,4.10
2017-12-17T01:36:10.814Z,4.10
2017-12-17T01:38:38.314Z,4.10
2017-12-17T01:41:05.834Z,4.10
2017-12-17T01:43:34.409Z,4.10
2017-12-17T01:46:03.681Z,4.00
2017-12-17T01:48:31.444Z,4.10
2017-12-17T01:50:58.918Z,4.10
2017-12-17T01:53:26.420Z,4.10
2017-12-17T01:55:54.231Z,4.10
2017-12-17T01:58:22.044Z,4.10
2017-12-17T02:00:49.712Z,4.10
2017-12-17T02:03:17.246Z,4.00
2017-12-17T02:05:45.587Z,4.00
2017-12-17T02:08:13.865Z,4.00
2017-12-17T02:10:41.467Z,4.00
2017-12-17T02:13:09.027Z,4.00
2017-12-17T02:15:37.412Z,4.00
2017-12-17T02:18:06.357Z,4.00
2017-12-17T02:20:33.886Z,4.00
2017-12-17T02:23:01.376Z,4.00
2017-12-17T02:25:28.888Z,4.00
2017-12-17T02:27:57.938Z,4.00
2017-12-17T02:30:25.654Z,4.00
2017-12-17T02:32:53.929Z,4.00
2017-12-17T02:35:22.888Z,4.00
2017-12-17T02:37:51.164Z,4.00
2017-12-17T02:40:18.660Z,3.90
2017-12-17T02:42:46.927Z,3.90
2017-12-17T02:45:14.447Z,3.90
2017-12-17T02:47:41.964Z,3.90
2017-12-17T02:50:10.707Z,4.00
2017-12-17T02:52:38.883Z,4.00
2017-12-17T02:55:08.195Z,4.00
2017-12-17T02:57:35.699Z,4.00
2017-12-17T03:00:04.587Z,3.90
2017-12-17T03:02:32.954Z,3.90
2017-12-17T03:05:00.458Z,3.90
2017-12-17T03:07:27.987Z,3.90
2017-12-17T03:09:55.472Z,4.00
2017-12-17T03:12:23.748Z,4.00
2017-12-17T03:14:52.689Z,4.00
2017-12-17T03:17:20.438Z,4.00
2017-12-17T03:19:49.091Z,3.90
2017-12-17T03:22:17.769Z,3.80
2017-12-17T03:24:47.333Z,3.80
2017-12-17T03:27:14.860Z,3.70
2017-12-17T03:29:42.343Z,3.70
2017-12-17T03:32:10.650Z,3.50
2017-12-17T03:34:38.144Z,3.50
2017-12-17T03:37:06.286Z,3.50
2017-12-17T03:39:33.784Z,3.60
2017-12-17T03:42:01.260Z,3.50
2017-12-17T03:44:29.093Z,3.50
2017-12-17T03:46:56.569Z,3.50
2017-12-17T03:49:24.077Z,3.50
2017-12-17T03:51:52.349Z,3.40
2017-12-17T03:54:19.945Z,3.40
2017-12-17T03:56:47.439Z,3.50
2017-12-17T03:59:14.958Z,3.50
2017-12-17T04:01:44.380Z,3.60
2017-12-17T04:04:11.956Z,3.50
2017-12-17T04:06:39.456Z,3.60
2017-12-17T04:09:07.010Z,3.60
2017-12-17T04:11:34.778Z,3.50
2017-12-17T04:14:03.138Z,3.50
2017-12-17T04:16:30.634Z,3.50
2017-12-17T04:18:58.393Z,3.50
2017-12-17T04:21:25.887Z,3.40
2017-12-17T04:23:54.163Z,3.30
2017-12-17T04:26:21.653Z,3.40
2017-12-17T04:28:49.180Z,3.40
2017-12-17T04:31:16.667Z,3.40
2017-12-17T04:33:44.921Z,3.40
2017-12-17T04:36:12.505Z,3.30
2017-12-17T04:38:41.617Z,3.40
2017-12-17T04:41:09.920Z,3.50
2017-12-17T04:43:37.815Z,3.50
2017-12-17T04:46:06.253Z,3.50
2017-12-17T04:48:33.782Z,3.50
2017-12-17T04:51:01.822Z,3.50
2017-12-17T04:53:29.331Z,3.50
2017-12-17T04:55:56.833Z,3.50
2017-12-17T04:58:24.323Z,3.50
2017-12-17T05:00:51.842Z,3.50
2017-12-17T05:03:20.092Z,3.40
2017-12-17T05:05:47.617Z,3.40
2017-12-17T05:08:15.110Z,3.30
2017-12-17T05:10:42.593Z,3.30
2017-12-17T05:13:10.090Z,3.20
2017-12-17T05:15:37.628Z,3.30
2017-12-17T05:18:05.108Z,3.30
2017-12-17T05:20:33.371Z,3.20
2017-12-17T05:23:00.871Z,3.20
2017-12-17T05:25:28.348Z,3.20
2017-12-17T05:27:55.844Z,3.10
2017-12-17T05:30:23.328Z,3.00
2017-12-17T05:32:51.604Z,2.90
2017-12-17T05:35:19.085Z,2.90
2017-12-17T05:37:46.570Z,2.80
2017-12-17T05:40:14.078Z,2.90
2017-12-17T05:42:41.543Z,2.90
2017-12-17T05:45:10.919Z,3.00
2017-12-17T05:47:38.456Z,3.00
2017-12-17T05:50:06.877Z,3.00
2017-12-17T05:52:34.358Z,3.00
2017-12-17T05:55:03.140Z,3.00
2017-12-17T05:57:30.642Z,2.90
2017-12-17T05:59:58.958Z,2.90
2017-12-17T06:02:26.447Z,2.90
2017-12-17T06:04:53.914Z,2.90
2017-12-17T06:07:21.442Z,2.90
2017-12-17T06:09:48.942Z,2.90
2017-12-17T06:12:16.417Z,3.00
2017-12-17T06:14:44.732Z,2.90
2017-12-17T06:17:12.229Z,2.90
2017-12-17T06:19:39.757Z,2.90
2017-12-17T06:22:07.329Z,2.90
2017-12-17T06:24:34.892Z,2.80
2017-12-17T06:27:03.150Z,2.80
2017-12-17T06:29:31.400Z,2.90
2017-12-17T06:31:59.721Z,2.90
2017-12-17T06:34:27.205Z,2.90
2017-12-17T06:36:54.769Z,2.90
2017-12-17T06:39:22.378Z,3.00
2017-12-17T06:41:49.902Z,3.00
2017-12-17T06:44:17.399Z,3.00
2017-12-17T06:46:45.429Z,3.00
2017-12-17T06:49:12.947Z,3.00
2017-12-17T06:51:40.424Z,3.10
2017-12-17T06:54:08.690Z,3.10
2017-12-17T06:56:36.513Z,3.00
2017-12-17T06:59:04.069Z,3.10
2017-12-17T07:01:31.910Z,3.10
2017-12-17T07:03:59.510Z,3.10
2017-12-17T07:06:27.045Z,3.10
2017-12-17T07:08:55.292Z,3.10
2017-12-17T07:11:22.790Z,3.10
2017-12-17T07:13:51.053Z,3.10
2017-12-17T07:16:19.325Z,3.00
2017-12-17T07:18:46.833Z,3.00
2017-12-17T07:21:14.311Z,3.00
2017-12-17T07:23:41.831Z,3.00
2017-12-17T07:26:11.061Z,3.00
2017-12-17T07:28:38.618Z,3.00
2017-12-17T07:31:06.337Z,3.10
2017-12-17T07:33:35.365Z,3.10
2017-12-17T07:36:04.078Z,3.00
2017-12-17T07:38:31.580Z,3.00
2017-12-17T07:40:59.181Z,3.00
2017-12-17T07:43:27.501Z,3.00
2017-12-17T07:45:55.117Z,3.00
2017-12-17T07:48:25.085Z,2.90
2017-12-17T07:50:52.610Z,2.90
2017-12-17T07:53:20.869Z,2.90
2017-12-17T07:55:50.906Z,2.90
2017-12-17T07:58:19.164Z,3.00
2017-12-17T08:00:46.686Z,3.00
2017-12-17T08:03:15.001Z,3.00
2017-12-17T08:05:43.292Z,2.90
2017-12-17T08:08:11.625Z,2.90
2017-12-17T08:10:39.106Z,2.80
2017-12-17T08:13:06.597Z,2.80
2017-12-17T08:15:35.448Z,2.70
2017-12-17T08:18:03.936Z,2.70
2017-12-17T08:20:31.448Z,2.70
2017-12-17T08:22:59.320Z,2.70
2017-12-17T08:25:26.808Z,2.80
2017-12-17T08:27:55.253Z,2.90
2017-12-17T08:30:22.813Z,2.90
2017-12-17T08:32:50.297Z,2.90
2017-12-17T08:35:19.723Z,3.00
2017-12-17T08:37:47.262Z,3.00
2017-12-17T08:40:14.746Z,3.10
2017-12-17T08:42:43.013Z,3.20
2017-12-17T08:45:10.520Z,3.30
2017-12-17T08:47:38.011Z,3.30
2017-12-17T08:50:05.505Z,3.30
2017-12-17T08:52:33.055Z,3.20
2017-12-17T08:55:00.574Z,3.20
2017-12-17T08:57:28.083Z,3.10
2017-12-17T08:59:56.678Z,3.20
2017-12-17T09:02:24.259Z,3.20
2017-12-17T09:04:52.504Z,3.30
2017-12-17T09:07:20.757Z,3.30
2017-12-17T09:09:48.336Z,3.40
2017-12-17T09:12:16.073Z,3.40
2017-12-17T09:14:44.323Z,3.50
2017-12-17T09:17:11.881Z,3.50
2017-12-17T09:19:39.525Z,3.50
2017-12-17T09:22:07.036Z,3.50
2017-12-17T09:24:35.318Z,3.50
2017-12-17T09:27:03.573Z,3.50
2017-12-17T09:29:31.146Z,3.50
2017-12-17T09:31:59.429Z,3.60
2017-12-17T09:34:27.682Z,3.60
2017-12-17T09:36:55.191Z,3.60
2017-12-17T09:39:23.498Z,3.60
2017-12-17T09:41:51.002Z,3.60
2017-12-17T09:44:18.483Z,3.50
2017-12-17T09:46:46.751Z,3.30
2017-12-17T09:49:14.319Z,3.30
2017-12-17T09:51:41.826Z,3.20
2017-12-17T09:54:09.577Z,3.10
2017-12-17T09:56:37.381Z,3.10
2017-12-17T09:59:04.873Z,3.10
2017-12-17T10:01:32.385Z,3.10
2017-12-17T10:03:59.887Z,3.10
2017-12-17T10:06:27.462Z,3.10
2017-12-17T10:08:55.776Z,3.30
2017-12-17T10:11:24.030Z,3.20
2017-12-17T10:13:51.530Z,3.20
2017-12-17T10:16:19.040Z,3.20
2017-12-17T10:18:46.524Z,3.20
2017-12-17T10:21:14.053Z,3.30
2017-12-17T10:23:41.610Z,3.30
2017-12-17T10:26:09.101Z,3.30
2017-12-17T10:28:37.364Z,3.30
2017-12-17T10:31:04.845Z,3.30
2017-12-17T10:33:32.348Z,3.30
2017-12-17T10:35:59.920Z,3.40
2017-12-17T10:38:28.322Z,3.50
2017-12-17T10:40:56.743Z,3.50
2017-12-17T10:43:24.324Z,3.60
2017-12-17T10:45:52.706Z,3.70
2017-12-17T10:48:20.216Z,3.60
2017-12-17T10:50:48.591Z,3.70
2017-12-17T10:53:16.180Z,3.70
2017-12-17T10:55:43.712Z,3.70
2017-12-17T10:58:11.241Z,3.60
2017-12-17T11:00:39.514Z,3.50
2017-12-17T11:03:07.098Z,3.50
2017-12-17T11:05:35.349Z,3.70
2017-12-17T11:08:03.801Z,3.70
2017-12-17T11:10:32.128Z,3.80
2017-12-17T11:13:01.155Z,3.80
2017-12-17T11:15:28.644Z,3.80
2017-12-17T11:17:56.502Z,3.80
2017-12-17T11:20:24.043Z,3.70
2017-12-17T11:22:52.293Z,3.70
2017-12-17T11:25:19.788Z,3.60
2017-12-17T11:27:47.281Z,3.60
2017-12-17T11:30:14.786Z,3.70
2017-12-17T11:32:44.656Z,3.70
2017-12-17T11:35:12.648Z,3.80
2017-12-17T11:37:40.150Z,3.80
2017-12-17T11:40:07.708Z,3.80
2017-12-17T11:42:35.759Z,3.70
2017-12-17T11:45:03.299Z,3.80
2017-12-17T11:47:30.859Z,3.80
2017-12-17T11:49:58.394Z,3.70
2017-12-17T11:52:26.653Z,3.70
2017-12-17T11:54:54.149Z,3.70
2017-12-17T11:57:21.689Z,3.70
2017-12-17T11:59:50.931Z,3.60
2017-12-17T12:02:18.428Z,3.60
2017-12-17T12:04:45.906Z,3.70
2017-12-17T12:07:13.520Z,3.70
2017-12-17T12:09:41.020Z,3.70
2017-12-17T12:12:08.508Z,3.60
2017-12-17T12:14:35.981Z,3.60
2017-12-17T12:17:04.263Z,3.50
2017-12-17T12:19:32.562Z,3.40
2017-12-17T12:22:00.046Z,3.40
2017-12-17T12:24:28.342Z,3.40
2017-12-17T12:26:55.862Z,3.30
2017-12-17T12:29:24.157Z,3.30
2017-12-17T12:31:51.783Z,3.30
2017-12-17T12:34:20.047Z,3.30
2017-12-17T12:36:47.558Z,3.30
2017-12-17T12:39:15.041Z,3.30
2017-12-17T12:41:42.524Z,3.30
2017-12-17T12:44:10.001Z,3.30
2017-12-17T12:46:37.483Z,3.40
2017-12-17T12:49:05.042Z,3.40
2017-12-17T12:51:33.551Z,3.40
2017-12-17T12:54:02.032Z,3.40
2017-12-17T12:56:30.277Z,3.50
2017-12-17T12:58:57.775Z,3.50
2017-12-17T13:01:26.048Z,3.50
2017-12-17T13:03:54.363Z,3.50
2017-12-17T13:06:21.930Z,3.50
2017-12-17T13:08:49.463Z,3.50
2017-12-17T13:11:17.741Z,3.60
2017-12-17T13:13:45.976Z,3.60
2017-12-17T13:16:13.531Z,3.60
2017-12-17T13:18:41.011Z,3.60
2017-12-17T13:21:08.524Z,3.60
2017-12-17T13:23:36.029Z,3.60
2017-12-17T13:26:03.567Z,3.50
2017-12-17T13:28:31.096Z,3.50
2017-12-17T13:30:59.375Z,3.50
2017-12-17T13:33:27.622Z,3.50
2017-12-17T13:35:55.100Z,3.50
2017-12-17T13:38:22.592Z,3.50
2017-12-17T13:40:50.837Z,3.50
2017-12-17T13:43:18.426Z,3.50
2017-12-17T13:45:46.700Z,3.50
2017-12-17T13:48:15.708Z,3.60
2017-12-17T13:50:43.969Z,3.60
2017-12-17T13:53:11.529Z,3.60
2017-12-17T13:55:39.152Z,3.60
2017-12-17T13:58:06.628Z,3.50
2017-12-17T14:00:34.130Z,3.50
2017-12-17T14:03:01.642Z,3.60
2017-12-17T14:05:29.139Z,3.60
2017-12-17T14:07:56.660Z,3.70
2017-12-17T14:10:24.398Z,3.60
2017-12-17T14:12:52.712Z,3.60
2017-12-17T14:15:20.277Z,3.60
2017-12-17T14:17:47.815Z,3.50
2017-12-17T14:20:16.076Z,3.60
2017-12-17T14:22:43.564Z,3.60
2017-12-17T14:25:11.837Z,3.50
2017-12-17T14:27:40.105Z,3.40
2017-12-17T14:30:08.501Z,3.40
2017-12-17T14:32:36.792Z,3.50
2017-12-17T14:35:04.294Z,3.40
2017-12-17T14:37:31.795Z,3.50
2017-12-17T14:40:00.082Z,3.40
2017-12-17T14:42:28.352Z,3.40
2017-12-17T14:44:55.961Z,3.40
2017-12-17T14:47:23.480Z,3.20
2017-12-17T14:49:51.732Z,3.20
2017-12-17T14:52:19.523Z,3.20
2017-12-17T14:54:48.581Z,3.20
2017-12-17T14:57:16.053Z,3.20
2017-12-17T14:59:43.559Z,3.30
2017-12-17T15:02:11.944Z,3.30
2017-12-17T15:04:40.285Z,3.40
2017-12-17T15:07:07.788Z,3.40
2017-12-17T15:09:36.049Z,3.40
2017-12-17T15:12:03.548Z,3.40
2017-12-17T15:14:31.871Z,3.30
2017-12-17T15:16:59.416Z,3.30
2017-12-17T15:19:26.897Z,3.40
2017-12-17T15:21:54.422Z,3.40
2017-12-17T15:24:22.694Z,3.40
2017-12-17T15:26:50.970Z,3.40
2017-12-17T15:29:19.244Z,3.40
2017-12-17T15:31:47.589Z,3.40
2017-12-17T15:34:15.081Z,3.30
2017-12-17T15:36:42.795Z,3.40
2017-12-17T15:39:10.328Z,3.40
2017-12-17T15:41:38.568Z,3.40
2017-12-17T15:44:06.071Z,3.40
2017-12-17T15:46:34.358Z,3.40
2017-12-17T15:49:02.729Z,3.30
2017-12-17T15:51:31.013Z,3.30
2017-12-17T15:53:59.298Z,3.30
2017-12-17T15:56:27.565Z,3.30
2017-12-17T15:58:55.102Z,3.30
2017-12-17T16:01:22.612Z,3.30
2017-12-17T16:03:50.188Z,3.30
2017-12-17T16:06:17.686Z,3.30
2017-12-17T16:08:45.197Z,3.30
2017-12-17T16:11:13.453Z,3.40
2017-12-17T16:13:40.976Z,3.40
2017-12-17T16:16:08.469Z,3.40
2017-12-17T16:18:35.987Z,3.30
2017-12-17T16:21:03.532Z,3.40
2017-12-17T16:23:31.821Z,3.40
2017-12-17T16:26:00.216Z,3.40
2017-12-17T16:28:27.719Z,3.40
2017-12-17T16:30:55.210Z,3.30
2017-12-17T16:33:23.532Z,3.40
2017-12-17T16:35:51.025Z,3.40
2017-12-17T16:38:18.507Z,3.50
2017-12-17T16:40:45.991Z,3.50
2017-12-17T16:43:14.302Z,3.50
2017-12-17T16:45:41.814Z,3.50
2017-12-17T16:48:09.352Z,3.40
2017-12-17T16:50:36.901Z,3.40
2017-12-17T16:53:04.566Z,3.40
2017-12-17T16:55:32.055Z,3.40
2017-12-17T16:57:59.547Z,3.30
2017-12-17T17:00:27.858Z,3.30
2017-12-17T17:02:55.422Z,3.30
2017-12-17T17:05:22.983Z,3.30
2017-12-17T17:07:50.502Z,3.30
2017-12-17T17:10:17.994Z,3.30
2017-12-17T17:12:46.269Z,3.20
2017-12-17T17:15:14.548Z,3.30
2017-12-17T17:17:42.939Z,3.30
2017-12-17T17:20:11.196Z,3.40
2017-12-17T17:22:40.251Z,3.40
2017-12-17T17:25:07.760Z,3.40
2017-12-17T17:27:35.273Z,3.50
2017-12-17T17:30:02.786Z,3.50
2017-12-17T17:32:30.297Z,3.40
2017-12-17T17:34:57.867Z,3.40
2017-12-17T17:37:25.394Z,3.40
2017-12-17T17:39:52.869Z,3.40
2017-12-17T17:42:21.252Z,3.40
2017-12-17T17:44:49.499Z,3.40
2017-12-17T17:47:17.104Z,3.30
2017-12-17T17:49:44.592Z,3.30
2017-12-17T17:52:12.135Z,3.40
2017-12-17T17:54:39.676Z,3.40
2017-12-17T17:57:07.936Z,3.40
2017-12-17T17:59:35.467Z,3.40
2017-12-17T18:02:03.044Z,3.30
2017-12-17T18:04:30.548Z,3.40
2017-12-17T18:06:58.828Z,3.40
2017-12-17T18:09:27.253Z,3.40
2017-12-17T18:11:55.115Z,3.40
2017-12-17T18:14:23.106Z,3.40
2017-12-17T18:16:51.407Z,3.40
2017-12-17T18:19:18.875Z,3.40
2017-12-17T18:21:46.496Z,3.40
2017-12-17T18:24:13.968Z,3.40
2017-12-17T18:26:41.467Z,3.40
2017-12-17T18:29:08.949Z,3.40
2017-12-17T18:31:37.272Z,3.50
2017-12-17T18:34:04.889Z,3.50
2017-12-17T18:36:32.376Z,3.50
2017-12-17T18:39:00.833Z,3.50
2017-12-17T18:41:28.340Z,3.50
2017-12-17T18:43:55.867Z,3.50
2017-12-17T18:46:23.415Z,3.50
2017-12-17T18:48:50.979Z,3.50
2017-12-17T18:51:18.424Z,3.40
2017-12-17T18:53:47.271Z,3.40
2017-12-17T18:56:15.545Z,3.40
2017-12-17T18:58:43.822Z,3.60
2017-12-17T19:01:12.113Z,3.50
2017-12-17T19:03:39.617Z,3.50
2017-12-17T19:06:07.099Z,3.50
2017-12-17T19:08:34.636Z,3.50
2017-12-17T19:11:02.143Z,3.50
2017-12-17T19:13:29.644Z,3.50
2017-12-17T19:15:57.190Z,3.50
2017-12-17T19:18:25.447Z,3.40
2017-12-17T19:20:53.727Z,3.40
2017-12-17T19:23:21.307Z,3.40
2017-12-17T19:25:49.875Z,3.40
2017-12-17T19:28:17.380Z,3.40
2017-12-17T19:30:44.952Z,3.40
2017-12-17T19:33:12.502Z,3.50
2017-12-17T19:35:40.008Z,3.40
2017-12-17T19:38:07.506Z,3.40
2017-12-17T19:40:35.824Z,3.30
2017-12-17T19:43:03.396Z,3.30
2017-12-17T19:45:30.837Z,3.30
2017-12-17T19:47:58.338Z,3.30
2017-12-17T19:50:25.917Z,3.30
2017-12-17T19:52:53.559Z,3.30
2017-12-17T19:55:21.220Z,3.30
2017-12-17T19:57:49.084Z,3.30
2017-12-17T20:00:16.957Z,3.40
2017-12-17T20:02:44.930Z,3.40
2017-12-17T20:05:12.904Z,3.40
2017-12-17T20:07:40.978Z,3.30
2017-12-17T20:10:14.846Z,3.40
2017-12-17T20:12:42.757Z,3.40
2017-12-17T20:15:10.739Z,3.30
2017-12-17T20:17:39.223Z,3.30
2017-12-17T20:20:07.095Z,3.30
2017-12-17T20:22:34.959Z,3.40
2017-12-17T20:25:03.756Z,3.40
2017-12-17T20:27:31.834Z,3.40
2017-12-17T20:29:59.802Z,3.40
2017-12-17T20:32:27.680Z,3.40
2017-12-17T20:34:55.546Z,3.40
2017-12-17T20:37:23.419Z,3.40
2017-12-17T20:39:51.289Z,3.30
2017-12-17T20:42:19.163Z,3.40
2017-12-17T20:44:47.118Z,3.30
2017-12-17T20:47:14.642Z,3.30
2017-12-17T20:49:42.164Z,3.30
2017-12-17T20:52:09.653Z,3.40
2017-12-17T20:54:37.688Z,3.40
2017-12-17T20:57:05.168Z,3.40
2017-12-17T20:59:32.677Z,3.40
2017-12-17T21:02:00.158Z,3.40
2017-12-17T21:04:28.461Z,3.50
2017-12-17T21:06:55.963Z,3.40
2017-12-17T21:09:23.473Z,3.50
2017-12-17T21:11:51.847Z,3.50
2017-12-17T21:14:20.117Z,3.50
2017-12-17T21:16:47.709Z,3.50
2017-12-17T21:19:15.293Z,3.50
2017-12-17T21:21:42.960Z,3.50
2017-12-17T21:24:10.473Z,3.50
2017-12-17T21:26:38.001Z,3.50
2017-12-17T21:29:05.529Z,3.50
2017-12-17T21:31:33.033Z,3.50
2017-12-17T21:34:00.556Z,3.40
2017-12-17T21:36:28.081Z,3.40
2017-12-17T21:38:55.708Z,3.50
2017-12-17T21:41:23.419Z,3.50
2017-12-17T21:43:50.920Z,3.60
2017-12-17T21:46:18.447Z,3.60
2017-12-17T21:48:45.960Z,3.60
2017-12-17T21:51:13.553Z,3.60
2017-12-17T21:53:41.040Z,3.60
2017-12-17T21:56:08.534Z,3.60
2017-12-17T21:58:36.016Z,3.60
2017-12-17T22:01:03.550Z,3.60
2017-12-17T22:03:31.799Z,3.50
2017-12-17T22:05:59.304Z,3.50
2017-12-17T22:08:26.784Z,3.50
2017-12-17T22:10:54.280Z,3.50
2017-12-17T22:13:21.892Z,3.50
2017-12-17T22:15:49.432Z,3.50
2017-12-17T22:18:16.952Z,3.40
2017-12-17T22:20:44.454Z,3.40
2017-12-17T22:23:11.949Z,3.40
2017-12-17T22:25:39.519Z,3.50
2017-12-17T22:28:07.097Z,3.40
2017-12-17T22:30:34.601Z,3.50
2017-12-17T22:33:02.103Z,3.40
2017-12-17T22:35:29.609Z,3.40
2017-12-17T22:37:57.147Z,3.40
2017-12-17T22:40:24.676Z,3.40
2017-12-17T22:42:53.098Z,3.40
2017-12-17T22:45:20.663Z,3.40
2017-12-17T22:47:48.345Z,3.40
2017-12-17T22:50:16.850Z,3.40
2017-12-17T22:52:44.472Z,3.50
2017-12-17T22:55:11.993Z,3.50
2017-12-17T22:57:40.257Z,3.60
2017-12-17T23:00:07.759Z,3.60
2017-12-17T23:02:36.039Z,3.60
2017-12-17T23:05:04.349Z,3.60
2017-12-17T23:07:31.858Z,3.50
2017-12-17T23:09:59.381Z,3.60
2017-12-17T23:12:27.635Z,3.50
2017-12-17T23:14:55.217Z,3.60
2017-12-17T23:17:22.712Z,3.60
2017-12-17T23:19:50.231Z,3.60
2017-12-17T23:22:17.729Z,3.60
2017-12-17T23:24:45.261Z,3.60
2017-12-17T23:27:13.637Z,3.50
2017-12-17T23:29:41.159Z,3.50
2017-12-17T23:32:09.281Z,3.50
2017-12-17T23:34:38.517Z,3.40
2017-12-17T23:37:06.026Z,3.40
2017-12-17T23:39:34.289Z,3.40
2017-12-17T23:42:02.662Z,3.40
2017-12-17T23:44:30.166Z,3.50
2017-12-17T23:46:57.724Z,3.40
2017-12-17T23:49:26.079Z,3.50
2017-12-17T23:51:53.625Z,3.50
2017-12-17T23:54:21.156Z,3.50
2017-12-17T23:56:48.662Z,3.50
2017-12-17T23:59:16.166Z,3.50
